Time;durP1;ratioP1;P1;durP2;ratioP2;P2;SDS_P1;SDS_P2;PMS_P1;PMS_P2;Temp;Humidity;BMP_temperature;BMP_pressure;BME280_temperature;BME280_humidity;BME280_pressure;Samples;Min_cycle;Max_cycle;Signal;HPM_P1;HPM_P2
2023/12/26 00:00:56;;;;;;;1.90;0.80;;;;;;;19.71;52.21;100472.56;4960836;28;97668;-78
2023/12/26 00:03:22;;;;;;;2.50;1.13;;;;;;;19.68;52.55;100467.41;4964837;28;96929;-78
2023/12/26 00:05:47;;;;;;;2.40;0.95;;;;;;;19.65;52.67;100461.34;4962365;28;101701;-78
2023/12/26 00:08:12;;;;;;;2.97;0.70;;;;;;;19.66;52.42;100468.34;4962587;28;98347;-78
2023/12/26 00:10:38;;;;;;;1.90;0.85;;;;;;;19.69;52.54;100461.16;4964506;28;97791;-78
2023/12/26 00:13:04;;;;;;;1.70;1.10;;;;;;;19.70;52.35;100468.22;4953379;28;97556;-78
2023/12/26 00:15:30;;;;;;;2.55;0.75;;;;;;;19.70;52.33;100459.41;4953657;28;96938;-78
2023/12/26 00:17:55;;;;;;;2.35;0.90;;;;;;;19.70;52.49;100465.56;4962416;28;97373;-78
2023/12/26 00:20:20;;;;;;;2.05;0.85;;;;;;;19.73;52.39;100459.28;4967602;28;97479;-78
2023/12/26 00:22:46;;;;;;;2.20;0.98;;;;;;;19.69;52.47;100453.22;4958973;28;96805;-78
2023/12/26 00:25:11;;;;;;;2.70;0.80;;;;;;;19.71;52.46;100461.13;4971377;28;109460;-78
2023/12/26 00:27:39;;;;;;;2.58;0.95;;;;;;;19.75;52.18;100462.78;4965926;28;97039;-78
2023/12/26 00:30:08;;;;;;;1.65;0.70;;;;;;;19.77;52.08;100445.09;4958337;28;99312;-78
2023/12/26 00:32:33;;;;;;;1.95;0.85;;;;;;;19.75;52.36;100455.75;4965269;28;97007;-78
2023/12/26 00:34:59;;;;;;;1.88;0.75;;;;;;;19.77;52.01;100453.03;4946077;28;97213;-78
2023/12/26 00:37:24;;;;;;;2.00;0.88;;;;;;;19.77;52.06;100455.69;4961812;28;129781;-78
2023/12/26 00:39:49;;;;;;;2.15;0.90;;;;;;;19.75;52.07;100454.84;4959174;28;99610;-78
2023/12/26 00:42:15;;;;;;;2.42;1.00;;;;;;;19.74;52.03;100450.50;4969853;28;96808;-78
2023/12/26 00:44:40;;;;;;;1.77;0.60;;;;;;;19.74;51.96;100451.34;4963035;28;97847;-77
2023/12/26 00:47:06;;;;;;;2.95;1.02;;;;;;;19.74;52.09;100461.06;4952985;28;114385;-78
2023/12/26 00:49:31;;;;;;;1.25;0.63;;;;;;;19.75;52.10;100462.78;4967263;28;102928;-78
2023/12/26 00:51:56;;;;;;;1.92;0.70;;;;;;;19.73;52.01;100457.56;4967201;28;99096;-78
2023/12/26 00:54:22;;;;;;;1.75;0.75;;;;;;;19.74;52.10;100472.50;4952328;28;96901;-77
2023/12/26 00:56:48;;;;;;;1.55;0.77;;;;;;;19.75;52.12;100486.59;4966289;28;100421;-78
2023/12/26 00:59:13;;;;;;;1.98;0.85;;;;;;;19.74;52.21;100498.97;4953491;28;127189;-78
2023/12/26 01:01:40;;;;;;;2.58;0.85;;;;;;;19.75;52.00;100478.66;4956135;28;97384;-77
2023/12/26 01:04:05;;;;;;;1.63;0.70;;;;;;;19.75;52.05;100483.94;4963533;28;97001;-78
2023/12/26 01:06:30;;;;;;;1.40;0.70;;;;;;;19.77;51.99;100482.16;4951275;28;127397;-77
2023/12/26 01:08:56;;;;;;;1.90;0.85;;;;;;;19.78;52.16;100492.66;4961272;28;100342;-78
2023/12/26 01:11:22;;;;;;;1.85;0.85;;;;;;;19.76;52.07;100504.22;4957522;28;96737;-77
2023/12/26 01:13:47;;;;;;;2.25;0.63;;;;;;;19.81;52.15;100493.50;4954529;28;96830;-77
2023/12/26 01:16:13;;;;;;;2.60;0.70;;;;;;;19.79;52.18;100488.25;4963376;28;97683;-77
2023/12/26 01:18:39;;;;;;;1.17;0.63;;;;;;;19.81;51.96;100488.22;4968070;28;100586;-78
2023/12/26 01:21:05;;;;;;;1.00;0.60;;;;;;;19.84;51.89;100490.75;4965022;28;97804;-77
2023/12/26 01:23:31;;;;;;;2.70;0.57;;;;;;;19.81;52.06;100494.38;4954162;28;96817;-77
2023/12/26 01:25:56;;;;;;;1.67;0.63;;;;;;;19.80;52.25;100487.31;4969280;28;98518;-77
2023/12/26 01:28:21;;;;;;;1.45;0.55;;;;;;;19.81;52.21;100489.06;4953331;28;110685;-77
2023/12/26 01:30:47;;;;;;;2.03;0.50;;;;;;;19.81;51.83;100493.50;4964756;28;99677;-77
2023/12/26 01:33:12;;;;;;;1.70;0.73;;;;;;;19.81;52.17;100493.50;4960297;28;96928;-77
2023/12/26 01:35:37;;;;;;;0.93;0.50;;;;;;;19.82;51.83;100497.88;4957175;28;120195;-77
2023/12/26 01:38:03;;;;;;;1.20;0.68;;;;;;;19.83;51.91;100512.84;4971087;28;99872;-77
2023/12/26 01:40:28;;;;;;;1.45;0.88;;;;;;;19.81;52.10;100504.09;4959788;28;96991;-77
2023/12/26 01:42:54;;;;;;;2.58;0.57;;;;;;;19.82;51.79;100501.41;4967841;28;97017;-77
2023/12/26 01:45:19;;;;;;;1.00;0.40;;;;;;;19.81;51.90;100515.53;4953914;28;103063;-77
2023/12/26 01:47:50;;;;;;;1.85;0.80;;;;;;;19.82;51.74;100517.28;4967247;28;100237;-77
2023/12/26 01:50:15;;;;;;;1.45;0.65;;;;;;;19.84;51.99;100503.97;4957581;28;96841;-77
2023/12/26 01:52:43;;;;;;;2.08;0.65;;;;;;;19.85;51.62;100503.94;4962276;28;97358;-77
2023/12/26 01:55:11;;;;;;;1.30;0.70;;;;;;;19.83;52.06;100511.06;4968643;28;97425;-77
2023/12/26 01:57:39;;;;;;;1.48;0.63;;;;;;;19.83;51.83;100526.94;4963126;28;99271;-77
2023/12/26 02:00:07;;;;;;;2.45;0.77;;;;;;;19.84;51.98;100514.56;4961085;28;96826;-77
2023/12/26 02:02:38;;;;;;;1.58;0.63;;;;;;;19.82;51.73;100519.03;4950896;28;97187;-77
2023/12/26 02:05:05;;;;;;;1.60;0.60;;;;;;;19.82;51.76;100527.88;4956817;28;97607;-77
2023/12/26 02:07:30;;;;;;;1.20;0.47;;;;;;;19.83;52.00;100521.66;4970058;28;97309;-77
2023/12/26 02:09:55;;;;;;;1.40;0.40;;;;;;;19.83;52.02;100519.00;4961630;28;97748;-77
2023/12/26 02:12:21;;;;;;;1.10;0.63;;;;;;;19.82;52.12;100519.03;4963014;28;97634;-77
2023/12/26 02:14:47;;;;;;;1.25;0.57;;;;;;;19.80;51.72;100516.44;4957190;28;99765;-77
2023/12/26 02:17:25;;;;;;;1.27;0.55;;;;;;;19.78;52.09;100527.06;4963261;28;97032;-77
2023/12/26 02:19:50;;;;;;;0.70;0.43;;;;;;;19.81;52.03;100530.56;4966720;28;96800;-77
2023/12/26 02:22:16;;;;;;;1.17;0.45;;;;;;;19.82;51.79;100527.88;4965099;28;98972;-77
2023/12/26 02:24:47;;;;;;;0.73;0.30;;;;;;;19.78;51.83;100526.22;4960153;28;97848;-77
2023/12/26 02:27:18;;;;;;;1.55;0.65;;;;;;;19.80;52.11;100527.03;4950415;28;100716;-77
2023/12/26 02:29:48;;;;;;;1.25;0.80;;;;;;;19.81;52.04;100526.13;4945834;28;97268;-77
2023/12/26 02:32:21;;;;;;;0.98;0.50;;;;;;;19.80;52.10;100534.97;4952522;28;96815;-77
2023/12/26 02:34:50;;;;;;;1.38;0.60;;;;;;;19.81;51.71;100535.84;4959879;28;96788;-77
2023/12/26 02:37:16;;;;;;;1.17;0.50;;;;;;;19.81;51.96;100542.00;4951353;28;99655;-77
2023/12/26 02:39:43;;;;;;;1.95;0.50;;;;;;;19.85;51.69;100533.03;4967659;28;97354;-77
2023/12/26 02:42:13;;;;;;;2.80;0.60;;;;;;;19.84;51.76;100531.34;4951879;28;96904;-77
2023/12/26 02:44:38;;;;;;;1.15;0.50;;;;;;;19.86;51.95;100544.53;4952453;28;99147;-77
2023/12/26 02:47:04;;;;;;;1.73;0.60;;;;;;;19.84;51.77;100539.28;4954236;28;97175;-77
2023/12/26 02:49:30;;;;;;;1.02;0.60;;;;;;;19.86;51.66;100534.78;4960330;28;111977;-77
2023/12/26 02:51:55;;;;;;;0.93;0.50;;;;;;;19.85;51.84;100534.84;4967760;28;96939;-77
2023/12/26 02:54:21;;;;;;;1.38;0.55;;;;;;;19.86;51.82;100548.03;4956083;28;111779;-78
2023/12/26 02:56:46;;;;;;;1.67;0.43;;;;;;;19.86;51.92;100550.66;4953525;28;122428;-77
2023/12/26 02:59:11;;;;;;;0.68;0.52;;;;;;;19.86;51.90;100557.75;4966555;28;97132;-77
2023/12/26 03:01:37;;;;;;;1.52;0.55;;;;;;;19.85;52.09;100554.22;4970227;28;97117;-77
2023/12/26 03:04:02;;;;;;;1.60;0.60;;;;;;;19.85;51.84;100562.16;4971757;28;98457;-77
2023/12/26 03:06:28;;;;;;;0.90;0.55;;;;;;;19.84;51.74;100563.09;4970967;28;100902;-77
2023/12/26 03:08:53;;;;;;;0.45;0.30;;;;;;;19.85;51.81;100578.03;4957694;28;96680;-77
2023/12/26 03:11:18;;;;;;;1.05;0.40;;;;;;;19.86;51.87;100577.13;4970711;28;97676;-77
2023/12/26 03:13:44;;;;;;;1.15;0.60;;;;;;;19.85;51.75;100579.81;4961939;28;97961;-77
2023/12/26 03:16:09;;;;;;;0.80;0.50;;;;;;;19.85;51.68;100578.03;4959960;28;122591;-77
2023/12/26 03:18:34;;;;;;;1.50;0.45;;;;;;;19.87;51.66;100588.59;4954983;28;107318;-77
2023/12/26 03:21:01;;;;;;;0.88;0.40;;;;;;;19.87;51.64;100597.38;4967661;28;97556;-77
2023/12/26 03:23:27;;;;;;;1.13;0.50;;;;;;;19.88;51.65;100611.50;4967192;28;97279;-77
2023/12/26 03:25:53;;;;;;;0.70;0.40;;;;;;;19.88;51.65;100606.22;4960624;28;96802;-77
2023/12/26 03:28:19;;;;;;;0.60;0.28;;;;;;;19.86;51.68;100600.97;4960573;28;112569;-77
2023/12/26 03:30:44;;;;;;;1.00;0.75;;;;;;;19.86;51.82;100603.59;4963661;28;113157;-78
2023/12/26 03:33:09;;;;;;;0.80;0.40;;;;;;;19.87;51.46;100609.75;4946486;28;99628;-77
2023/12/26 03:35:35;;;;;;;1.17;0.68;;;;;;;19.88;51.77;100615.00;4968756;28;124889;-77
2023/12/26 03:38:01;;;;;;;0.90;0.55;;;;;;;19.86;51.70;100615.97;4963279;28;96740;-77
2023/12/26 03:40:26;;;;;;;0.70;0.30;;;;;;;19.85;52.00;100611.59;4952907;28;111771;-77
2023/12/26 03:42:52;;;;;;;0.70;0.30;;;;;;;19.88;51.73;100611.50;4956615;28;98915;-77
2023/12/26 03:45:17;;;;;;;0.63;0.38;;;;;;;19.89;51.54;100608.81;4955047;28;100169;-77
2023/12/26 03:47:42;;;;;;;0.90;0.40;;;;;;;19.88;51.81;100612.38;4958409;28;96909;-77
2023/12/26 03:50:10;;;;;;;1.55;0.45;;;;;;;19.89;51.50;100607.94;4956446;28;96886;-77
2023/12/26 03:52:36;;;;;;;1.10;0.65;;;;;;;19.87;51.58;100618.56;4963340;28;97365;-77
2023/12/26 03:55:02;;;;;;;2.28;0.32;;;;;;;19.85;51.72;100612.44;4964157;28;99333;-77
2023/12/26 03:57:28;;;;;;;1.15;0.65;;;;;;;19.88;51.87;100606.22;4972851;28;96907;-77
2023/12/26 03:59:53;;;;;;;1.17;0.52;;;;;;;19.89;51.77;100627.34;4959899;28;96758;-77
2023/12/26 04:02:18;;;;;;;0.65;0.30;;;;;;;19.90;51.62;100621.13;4954489;28;99500;-77
2023/12/26 04:04:44;;;;;;;0.82;0.35;;;;;;;19.89;51.53;100618.50;4957764;28;99083;-77
2023/12/26 04:07:10;;;;;;;0.75;0.50;;;;;;;19.91;51.60;100643.16;4962168;28;96783;-77
2023/12/26 04:09:36;;;;;;;1.25;0.50;;;;;;;19.91;51.73;100640.50;4962465;28;97340;-77
2023/12/26 04:12:01;;;;;;;1.15;0.55;;;;;;;19.90;51.72;100637.00;4962281;28;98086;-77
2023/12/26 04:14:27;;;;;;;1.10;0.30;;;;;;;19.90;51.75;100642.28;4966462;28;96828;-77
2023/12/26 04:16:52;;;;;;;0.65;0.50;;;;;;;19.92;51.50;100655.50;4965906;28;96749;-77
2023/12/26 04:19:17;;;;;;;1.23;0.50;;;;;;;19.92;51.24;100658.13;4961717;28;111706;-77
2023/12/26 04:21:43;;;;;;;0.50;0.30;;;;;;;19.87;51.52;100657.41;4944583;28;100537;-77
2023/12/26 04:24:08;;;;;;;1.17;0.32;;;;;;;19.91;51.66;100669.63;4964727;28;117916;-77
2023/12/26 04:26:36;;;;;;;1.13;0.43;;;;;;;19.88;51.63;100665.31;4963009;28;102460;-77
2023/12/26 04:29:01;;;;;;;1.17;0.50;;;;;;;19.87;51.57;100666.19;4971547;28;97548;-77
2023/12/26 04:31:26;;;;;;;0.80;0.50;;;;;;;19.87;51.72;100671.50;4957216;28;97518;-77
2023/12/26 04:33:52;;;;;;;0.63;0.32;;;;;;;19.89;51.38;100675.00;4960367;28;102401;-78
2023/12/26 04:36:17;;;;;;;0.60;0.30;;;;;;;19.91;51.36;100689.03;4963147;28;97637;-77
2023/12/26 04:38:43;;;;;;;0.45;0.30;;;;;;;19.90;51.76;100686.44;4960480;28;97342;-77
2023/12/26 04:41:11;;;;;;;0.60;0.40;;;;;;;19.87;51.50;100682.06;4959645;28;97332;-77
2023/12/26 04:43:37;;;;;;;0.88;0.43;;;;;;;19.88;51.72;100682.97;4947287;28;100412;-77
2023/12/26 04:46:03;;;;;;;0.95;0.40;;;;;;;19.88;51.36;100689.13;4957679;28;97651;-77
2023/12/26 04:48:28;;;;;;;1.15;0.52;;;;;;;19.88;51.36;100697.06;4954357;28;96970;-77
2023/12/26 04:50:54;;;;;;;1.27;0.57;;;;;;;19.89;51.60;100711.16;4956403;28;98604;-78
2023/12/26 04:53:19;;;;;;;0.80;0.55;;;;;;;19.90;51.35;100702.31;4967472;28;121244;-77
2023/12/26 04:55:45;;;;;;;1.05;0.50;;;;;;;19.89;51.05;100708.50;4950403;28;96952;-77
2023/12/26 04:58:10;;;;;;;1.55;0.30;;;;;;;19.88;51.45;100720.88;4971377;28;96820;-78
2023/12/26 05:00:35;;;;;;;0.82;0.52;;;;;;;19.89;51.27;100714.69;4955853;28;100332;-76
2023/12/26 05:03:01;;;;;;;0.80;0.40;;;;;;;19.88;51.30;100718.25;4968088;28;98728;-78
2023/12/26 05:05:26;;;;;;;0.40;0.30;;;;;;;19.89;51.42;100720.00;4971727;28;96854;-77
2023/12/26 05:07:52;;;;;;;0.80;0.40;;;;;;;19.91;51.57;100734.03;4968030;28;106142;-77
2023/12/26 05:10:18;;;;;;;0.52;0.47;;;;;;;19.90;51.35;100732.28;4971148;28;99714;-78
2023/12/26 05:12:43;;;;;;;0.93;0.50;;;;;;;19.91;51.31;100749.91;4967915;28;100633;-77
2023/12/26 05:15:09;;;;;;;0.75;0.45;;;;;;;19.87;51.45;100737.66;4971348;28;98332;-77
2023/12/26 05:17:34;;;;;;;0.47;0.35;;;;;;;19.92;51.50;100748.13;4969035;28;96983;-77
2023/12/26 05:20:01;;;;;;;1.45;0.50;;;;;;;19.92;51.58;100761.38;4964771;28;117491;-77
2023/12/26 05:22:26;;;;;;;0.88;0.52;;;;;;;19.91;51.23;100755.22;4959181;28;100240;-77
2023/12/26 05:24:51;;;;;;;1.55;0.47;;;;;;;19.90;51.14;100769.34;4969226;28;97196;-77
2023/12/26 05:27:19;;;;;;;1.20;0.52;;;;;;;19.92;51.36;100766.66;4969201;28;96810;-77
2023/12/26 05:29:44;;;;;;;0.70;0.50;;;;;;;19.93;51.53;100769.28;4970524;28;99498;-77
2023/12/26 05:32:10;;;;;;;1.02;0.52;;;;;;;19.92;51.02;100770.16;4968104;28;99314;-77
2023/12/26 05:34:36;;;;;;;0.60;0.30;;;;;;;19.93;51.12;100781.66;4970490;28;96929;-77
2023/12/26 05:37:01;;;;;;;0.85;0.50;;;;;;;19.90;51.42;100779.94;4969223;28;97201;-78
2023/12/26 05:39:26;;;;;;;1.58;0.40;;;;;;;19.90;51.63;100785.22;4964770;28;99044;-77
2023/12/26 05:41:52;;;;;;;1.20;0.55;;;;;;;19.92;51.23;100796.63;4969046;28;98361;-77
2023/12/26 05:44:18;;;;;;;1.58;0.55;;;;;;;19.92;51.13;100803.72;4948271;28;97354;-77
2023/12/26 05:46:45;;;;;;;2.35;0.57;;;;;;;19.91;51.31;100807.25;4960110;28;96898;-78
2023/12/26 05:49:11;;;;;;;0.65;0.32;;;;;;;19.93;51.05;100816.91;4958068;28;100456;-77
2023/12/26 05:51:36;;;;;;;0.70;0.40;;;;;;;19.93;51.26;100819.56;4966375;28;100929;-78
2023/12/26 05:54:02;;;;;;;0.70;0.55;;;;;;;19.94;51.38;100818.63;4961291;28;98912;-77
2023/12/26 05:56:28;;;;;;;4.15;0.52;;;;;;;19.93;51.14;100819.56;4968008;28;97218;-77
2023/12/26 05:58:53;;;;;;;0.90;0.43;;;;;;;19.92;51.25;100824.91;4970560;28;99656;-78
2023/12/26 06:01:19;;;;;;;1.20;0.45;;;;;;;19.91;51.31;100831.09;4953995;28;99388;-77
2023/12/26 06:03:44;;;;;;;1.75;0.50;;;;;;;19.90;51.11;100839.97;4953833;28;96894;-77
2023/12/26 06:06:14;;;;;;;1.02;0.52;;;;;;;19.90;51.44;100854.06;4958340;28;96788;-77
2023/12/26 06:08:40;;;;;;;0.98;0.50;;;;;;;19.91;51.14;100844.31;4956681;28;98304;-77
2023/12/26 06:11:07;;;;;;;1.17;0.50;;;;;;;19.89;51.26;100851.44;4957767;28;99965;-77
2023/12/26 06:13:32;;;;;;;1.85;0.65;;;;;;;19.91;51.20;100847.88;4969895;28;96785;-77
2023/12/26 06:15:58;;;;;;;1.48;0.40;;;;;;;19.90;51.13;100859.34;4946858;28;96767;-77
2023/12/26 06:18:23;;;;;;;1.58;0.60;;;;;;;19.91;51.27;100852.25;4960767;28;118980;-77
2023/12/26 06:20:49;;;;;;;1.15;0.50;;;;;;;19.90;50.94;100862.00;4951758;28;97198;-77
2023/12/26 06:23:15;;;;;;;1.17;0.30;;;;;;;19.88;51.30;100861.16;4961032;28;96780;-77
2023/12/26 06:25:40;;;;;;;0.90;0.43;;;;;;;19.88;51.04;100863.81;4965902;28;97589;-78
2023/12/26 06:28:06;;;;;;;1.42;0.70;;;;;;;19.90;51.07;100871.72;4965828;28;100235;-78
2023/12/26 06:30:32;;;;;;;1.58;0.50;;;;;;;19.92;51.25;100891.06;4965750;28;99920;-77
2023/12/26 06:32:57;;;;;;;0.65;0.52;;;;;;;19.91;51.16;100907.84;4959806;28;109827;-78
2023/12/26 06:35:22;;;;;;;2.13;0.32;;;;;;;19.90;50.90;100911.44;4979992;28;97109;-77
2023/12/26 06:37:48;;;;;;;1.52;0.57;;;;;;;19.90;51.08;100907.00;4967824;28;99269;-77
2023/12/26 06:40:13;;;;;;;1.30;0.63;;;;;;;19.91;51.07;100908.75;4965684;28;99082;-77
2023/12/26 06:42:39;;;;;;;1.33;0.50;;;;;;;19.95;50.81;100905.09;4961566;28;97158;-77
2023/12/26 06:45:05;;;;;;;1.13;0.40;;;;;;;19.94;51.07;100916.59;4971676;28;97177;-77
2023/12/26 06:47:31;;;;;;;1.30;0.60;;;;;;;19.92;51.15;100925.50;4952070;28;96793;-77
2023/12/26 06:49:56;;;;;;;0.75;0.60;;;;;;;19.91;50.84;100929.94;4970653;28;97201;-77
2023/12/26 06:52:23;;;;;;;1.20;0.43;;;;;;;19.92;50.95;100929.00;4961913;28;96811;-77
2023/12/26 06:54:48;;;;;;;1.13;0.43;;;;;;;19.90;51.07;100930.81;4970962;28;96940;-77
2023/12/26 06:57:16;;;;;;;2.58;0.60;;;;;;;19.93;51.20;100941.34;4962587;28;99887;-77
2023/12/26 06:59:44;;;;;;;1.65;0.40;;;;;;;19.91;51.18;100955.50;4972778;28;99003;-77
2023/12/26 07:02:09;;;;;;;1.10;0.35;;;;;;;19.92;51.01;100946.66;4954060;28;96810;-77
2023/12/26 07:04:34;;;;;;;0.50;0.30;;;;;;;19.90;51.02;100957.28;4966930;28;97043;-77
2023/12/26 07:07:00;;;;;;;1.48;0.60;;;;;;;19.91;50.75;100955.50;4956193;28;97350;-78
2023/12/26 07:09:25;;;;;;;2.78;0.95;;;;;;;19.90;50.84;100961.72;4961115;28;99436;-77
2023/12/26 07:11:51;;;;;;;3.03;0.68;;;;;;;19.92;50.80;100957.25;4954209;28;112338;-77
2023/12/26 07:14:17;;;;;;;0.90;0.52;;;;;;;19.91;50.83;100961.69;4957439;28;96935;-77
2023/12/26 07:16:42;;;;;;;1.60;0.40;;;;;;;19.91;50.97;100969.63;4967845;28;97588;-77
2023/12/26 07:19:07;;;;;;;0.90;0.70;;;;;;;19.93;51.08;100974.91;4959930;28;96664;-77
2023/12/26 07:21:33;;;;;;;1.13;0.52;;;;;;;19.93;51.06;100990.78;4964338;28;112458;-78
2023/12/26 07:23:58;;;;;;;1.30;0.43;;;;;;;19.92;50.77;100991.66;4965591;28;96759;-77
2023/12/26 07:26:23;;;;;;;1.15;0.70;;;;;;;19.93;50.80;100999.59;4955326;28;127177;-77
2023/12/26 07:28:49;;;;;;;1.60;0.50;;;;;;;19.94;50.75;101006.59;4960237;28;126610;-77
2023/12/26 07:31:20;;;;;;;0.85;0.43;;;;;;;19.93;50.75;101007.53;4960624;28;101533;-77
2023/12/26 07:33:47;;;;;;;1.85;0.63;;;;;;;19.96;50.73;101018.03;4959495;28;96795;-77
2023/12/26 07:36:13;;;;;;;0.88;0.43;;;;;;;19.92;50.73;101024.31;4943800;28;100346;-77
2023/12/26 07:38:39;;;;;;;0.95;0.43;;;;;;;19.94;50.58;101027.78;4966216;28;99874;-77
2023/12/26 07:41:04;;;;;;;0.90;0.32;;;;;;;19.93;50.60;101031.34;4955683;28;96767;-77
2023/12/26 07:43:29;;;;;;;1.30;0.47;;;;;;;19.89;50.63;101032.34;4970333;28;96775;-77
2023/12/26 07:45:56;;;;;;;1.10;0.40;;;;;;;19.91;50.80;101035.81;4968301;28;124559;-77
2023/12/26 07:48:21;;;;;;;2.33;0.50;;;;;;;19.90;50.80;101036.69;4962670;28;97632;-77
2023/12/26 07:50:46;;;;;;;2.08;0.70;;;;;;;19.93;50.62;101035.78;4959929;28;113099;-77
2023/12/26 07:53:12;;;;;;;1.05;0.43;;;;;;;19.90;50.97;101038.50;4966679;28;96854;-77
2023/12/26 07:55:37;;;;;;;1.48;0.57;;;;;;;19.88;51.06;101043.81;4970074;28;108855;-77
2023/12/26 07:58:03;;;;;;;1.20;0.52;;;;;;;19.91;50.56;101038.47;4961033;28;97241;-77
2023/12/26 08:00:28;;;;;;;2.22;0.63;;;;;;;19.89;51.06;101039.38;4972442;28;96849;-77
2023/12/26 08:02:53;;;;;;;1.23;0.40;;;;;;;19.89;50.76;101048.22;4962199;28;98633;-78
2023/12/26 08:05:19;;;;;;;1.38;0.40;;;;;;;19.89;50.87;101053.50;4969021;28;97397;-77
2023/12/26 08:07:45;;;;;;;1.67;0.60;;;;;;;19.89;50.98;101063.22;4965849;28;97313;-77
2023/12/26 08:10:10;;;;;;;1.30;0.40;;;;;;;19.89;50.87;101072.03;4957771;28;97506;-77
2023/12/26 08:12:36;;;;;;;2.00;0.50;;;;;;;19.91;50.79;101083.47;4971096;28;96953;-77
2023/12/26 08:15:01;;;;;;;2.50;0.98;;;;;;;19.91;50.66;101091.41;4970310;28;118495;-77
2023/12/26 08:17:27;;;;;;;1.85;0.63;;;;;;;19.91;50.61;101095.81;4941745;28;98460;-77
2023/12/26 08:19:52;;;;;;;1.00;0.45;;;;;;;19.91;50.39;101098.44;4963468;28;96674;-77
2023/12/26 08:22:17;;;;;;;1.85;0.52;;;;;;;19.91;50.79;101090.50;4964763;28;97051;-77
2023/12/26 08:24:43;;;;;;;2.88;0.75;;;;;;;19.91;50.59;101094.06;4969958;28;98069;-77
2023/12/26 08:27:09;;;;;;;1.38;0.50;;;;;;;19.91;50.68;101096.69;4964412;28;97656;-77
2023/12/26 08:29:34;;;;;;;1.63;0.55;;;;;;;19.92;50.71;101090.47;4964022;28;96819;-77
2023/12/26 08:31:59;;;;;;;1.23;0.65;;;;;;;19.93;50.72;101096.66;4958959;28;107568;-77
2023/12/26 08:34:25;;;;;;;1.17;0.43;;;;;;;19.93;50.43;101100.19;4963004;28;125775;-77
2023/12/26 08:36:51;;;;;;;1.25;0.40;;;;;;;19.92;50.35;101111.66;4960121;28;97767;-78
2023/12/26 08:39:17;;;;;;;1.35;0.52;;;;;;;19.91;50.42;101103.75;4967887;28;96862;-77
2023/12/26 08:41:43;;;;;;;2.55;0.60;;;;;;;19.92;50.52;101103.72;4953665;28;97047;-77
2023/12/26 08:44:09;;;;;;;1.35;0.43;;;;;;;19.94;50.22;101109.84;4954202;28;97259;-77
2023/12/26 08:46:34;;;;;;;1.45;0.40;;;;;;;19.94;50.06;101114.28;4952697;28;98492;-77
2023/12/26 08:49:00;;;;;;;1.77;0.60;;;;;;;19.93;50.43;101124.00;4954806;28;97018;-77
2023/12/26 08:51:25;;;;;;;1.15;0.50;;;;;;;19.95;50.26;101126.63;4955064;28;96770;-77
2023/12/26 08:53:52;;;;;;;1.15;0.47;;;;;;;19.95;50.56;101132.78;4967341;28;97411;-77
2023/12/26 08:56:17;;;;;;;1.35;0.60;;;;;;;19.96;50.33;101141.59;4954934;28;97223;-77
2023/12/26 08:58:42;;;;;;;1.60;0.60;;;;;;;19.96;50.45;101145.13;4966904;28;96922;-77
2023/12/26 09:01:10;;;;;;;1.00;0.47;;;;;;;19.96;50.44;101146.88;4952970;28;112252;-77
2023/12/26 09:03:35;;;;;;;1.75;0.50;;;;;;;19.97;50.40;101152.16;4956851;28;98219;-79
2023/12/26 09:06:01;;;;;;;1.40;0.70;;;;;;;19.99;50.15;101165.34;4972915;28;97596;-79
2023/12/26 09:08:26;;;;;;;2.38;0.95;;;;;;;19.97;50.22;101170.69;4970918;28;96919;-80
2023/12/26 09:10:52;;;;;;;1.70;0.50;;;;;;;19.97;50.21;101170.69;4957407;28;97394;-77
2023/12/26 09:13:20;;;;;;;0.80;0.40;;;;;;;19.97;50.16;101168.03;4940050;28;97856;-79
2023/12/26 09:15:49;;;;;;;3.17;0.65;;;;;;;19.97;50.09;101177.75;4962528;28;97246;-77
2023/12/26 09:18:20;;;;;;;1.92;0.80;;;;;;;19.96;50.28;101183.94;4966660;28;96777;-77
2023/12/26 09:20:54;;;;;;;1.65;0.50;;;;;;;19.91;50.26;101181.41;4957452;28;97216;-80
2023/12/26 09:23:20;;;;;;;1.35;0.65;;;;;;;19.90;50.35;101179.66;4958126;28;97004;-81
2023/12/26 09:25:45;;;;;;;1.73;0.80;;;;;;;19.90;50.32;101184.09;4968406;28;97746;-79
2023/12/26 09:28:10;;;;;;;1.50;0.40;;;;;;;19.88;50.70;101185.91;4971146;28;97258;-79
2023/12/26 09:30:43;;;;;;;1.58;0.63;;;;;;;19.94;50.54;101196.34;4965624;28;112626;-79
2023/12/26 09:33:25;;;;;;;1.95;0.93;;;;;;;19.95;50.24;101206.03;4965663;28;98165;-80
2023/12/26 09:36:04;;;;;;;1.48;0.70;;;;;;;20.11;49.86;101217.19;4959736;28;98167;-77
2023/12/26 09:38:30;;;;;;;1.80;0.70;;;;;;;20.15;49.88;101217.06;4963435;28;96723;-77
2023/12/26 09:40:56;;;;;;;1.25;0.45;;;;;;;20.14;49.70;101211.81;4963915;28;97452;-77
2023/12/26 09:43:21;;;;;;;2.03;0.45;;;;;;;20.14;49.59;101238.28;4952625;28;98984;-77
2023/12/26 09:45:46;;;;;;;1.00;0.30;;;;;;;20.16;49.52;101239.16;4953493;28;97231;-77
2023/12/26 09:48:12;;;;;;;2.08;0.60;;;;;;;20.14;49.52;101247.13;4953569;28;96669;-77
2023/12/26 09:50:37;;;;;;;1.33;0.50;;;;;;;20.09;49.81;101251.66;4964500;28;96738;-77
2023/12/26 09:53:07;;;;;;;2.13;0.60;;;;;;;20.11;49.72;101251.63;4952480;28;96861;-77
2023/12/26 09:55:32;;;;;;;1.73;0.40;;;;;;;20.07;49.71;101261.41;4966958;28;99248;-77
2023/12/26 09:57:58;;;;;;;1.45;0.55;;;;;;;20.00;49.95;101264.19;4965402;28;97129;-77
2023/12/26 10:00:27;;;;;;;1.60;0.60;;;;;;;19.97;49.95;101273.06;4960649;28;96940;-77
2023/12/26 10:02:53;;;;;;;2.90;0.75;;;;;;;20.02;49.74;101272.97;4957294;28;97409;-77
2023/12/26 10:05:19;;;;;;;2.22;0.60;;;;;;;20.03;49.93;101272.06;4969998;28;97062;-77
2023/12/26 10:07:44;;;;;;;1.63;0.60;;;;;;;19.96;49.76;101281.91;4963506;28;96758;-77
2023/12/26 10:10:19;;;;;;;2.83;0.47;;;;;;;19.97;50.17;101288.97;4957498;28;96959;-77
2023/12/26 10:12:46;;;;;;;3.97;0.93;;;;;;;20.00;49.81;101298.59;4962638;28;97529;-77
2023/12/26 10:15:11;;;;;;;2.20;0.70;;;;;;;20.01;49.73;101306.53;4956584;28;96866;-77
2023/12/26 10:17:39;;;;;;;2.47;0.52;;;;;;;20.03;49.66;101303.84;4959791;28;96805;-77
2023/12/26 10:20:05;;;;;;;1.70;0.70;;;;;;;20.08;49.74;101315.22;4970908;28;97901;-77
2023/12/26 10:22:31;;;;;;;2.08;0.50;;;;;;;20.10;49.51;101319.56;4968583;28;100819;-77
2023/12/26 10:25:00;;;;;;;2.17;0.50;;;;;;;20.16;49.31;101321.25;4966219;28;96852;-77
2023/12/26 10:27:25;;;;;;;2.38;0.68;;;;;;;20.18;49.20;101314.16;4972493;28;98108;-77
2023/12/26 10:29:53;;;;;;;4.40;0.77;;;;;;;20.18;49.33;101316.78;4960866;28;97192;-77
2023/12/26 10:32:18;;;;;;;1.83;0.70;;;;;;;20.16;49.28;101316.81;4961711;28;98119;-77
2023/12/26 10:34:44;;;;;;;3.92;0.65;;;;;;;20.19;49.35;101320.31;4959532;28;97296;-77
2023/12/26 10:37:10;;;;;;;1.55;0.60;;;;;;;20.20;49.18;101325.56;4963223;28;97366;-77
2023/12/26 10:39:36;;;;;;;2.78;1.17;;;;;;;20.17;49.20;101315.03;4962034;28;97187;-77
2023/12/26 10:42:03;;;;;;;2.53;0.52;;;;;;;20.20;49.19;101316.78;4963924;28;119750;-77
2023/12/26 10:44:29;;;;;;;2.95;0.73;;;;;;;20.16;49.42;101314.19;4972307;28;97340;-77
2023/12/26 10:46:56;;;;;;;2.97;0.80;;;;;;;20.17;49.30;101315.03;4970370;28;99251;-77
2023/12/26 10:49:26;;;;;;;3.80;0.70;;;;;;;20.15;48.97;101306.25;4971130;28;99126;-77
2023/12/26 10:51:52;;;;;;;4.13;0.82;;;;;;;20.16;49.15;101310.66;4969617;28;97416;-77
2023/12/26 10:54:20;;;;;;;2.58;0.52;;;;;;;20.17;49.38;101321.19;4967545;28;98527;-77
2023/12/26 10:56:49;;;;;;;1.95;0.80;;;;;;;20.14;49.23;101323.94;4956394;28;97004;-77
2023/12/26 10:59:14;;;;;;;2.65;0.75;;;;;;;20.19;49.15;101320.31;4971422;28;97328;-77
2023/12/26 11:01:40;;;;;;;2.65;0.68;;;;;;;20.18;48.86;101327.41;4961771;28;97484;-77
2023/12/26 11:04:06;;;;;;;3.80;0.80;;;;;;;20.22;49.11;101325.56;4951026;28;126862;-77
2023/12/26 11:06:31;;;;;;;1.88;0.60;;;;;;;20.20;49.10;101330.88;4961159;28;97130;-78
2023/12/26 11:08:57;;;;;;;2.78;0.80;;;;;;;20.21;49.00;101332.59;4956934;28;97029;-77
2023/12/26 11:11:22;;;;;;;2.35;0.63;;;;;;;20.20;49.22;101337.97;4970102;28;97825;-77
2023/12/26 11:13:49;;;;;;;2.63;0.73;;;;;;;20.25;48.88;101331.66;4971742;28;123356;-77
2023/12/26 11:16:14;;;;;;;2.63;0.80;;;;;;;20.24;49.03;101343.16;4970402;28;96985;-77
2023/12/26 11:18:40;;;;;;;1.67;0.80;;;;;;;20.22;49.10;101347.59;4965561;28;96811;-77